KHST/HST METAR and TAF weather

Enter ICAO airport designator
Station Type Date Time Source
KHST METAR 2022/08/16 19:35 UTC NOAA

KHST 161935Z AUTO 26011KT 4SM +TSRA SCT002 BKN034 26/25 A2993 RMK AO2 DZB16E18RAB18 TSE22TSB35 SLP139


Station Type Date Time Source
KHST Decoded METAR 2022/08/16 19:35 UTC NOAA

Homestead Air Force Base, FL, United States (KHST) 25-29N 080-23W
Aug 16, 2022 - 03:35 PM EDT / 2022.08.16 1935 UTC
Wind: from the W (260 degrees) at 13 MPH (11 KT):0
Visibility: 4 mile(s):0
Sky conditions: mostly cloudy
Weather: heavy rain with thunder
Temperature: 78 F (26 C)
Dew Point: 77 F (25 C)
Relative Humidity: 94%
Pressure (altimeter): 29.93 in. Hg (1013 hPa)
ob: KHST 161935Z AUTO 26011KT 4SM +TSRA SCT002 BKN034 26/25 A2993 RMK AO2 DZB16E18RAB18 TSE22TSB35 SLP139
cycle: 19

Station Type Date Time Source
KHST TAF 2022/08/16 19:24 UTC NOAA

TAF COR KHST 161916Z 1619/1801 24008KT 9999 VCTS SCT025CB BKN040 QNH2991INS
TEMPO 1619/1623 VRB12G20KT 3200 TSRA BKN020CB
BECMG 1623/1624 VRB06KT 9999 NSW SCT025 SCT045 QNH2990INS
BECMG 1713/1714 25008KT 9999 VCSH FEW025 SCT045 QNH2997INS
TEMPO 1718/1722 25012KT 8000 -SHRA VCTS BKN025CB BKN045 TX32/1619Z TN25/1711Z

Example: see airport list